createdAt,value
2023-11-14T00:03:01.585Z,96812.84
2023-11-14T00:06:05.336Z,96817.94
2023-11-14T00:09:07.459Z,96833.69
2023-11-14T00:12:09.419Z,96822.19
2023-11-14T00:15:11.213Z,96820.38
2023-11-14T00:18:13.182Z,96830.16
2023-11-14T00:21:16.487Z,96841.59
2023-11-14T00:24:18.697Z,96833.59
2023-11-14T00:27:20.524Z,96815.03
2023-11-14T00:30:22.463Z,96822.53
2023-11-14T00:33:24.281Z,96811.72
2023-11-14T00:36:27.750Z,96820.91
2023-11-14T00:39:29.602Z,96807.03
2023-11-14T00:42:34.368Z,96814.94
2023-11-14T00:45:36.144Z,96815.03
2023-11-14T00:48:37.851Z,96819.94
2023-11-14T00:51:41.021Z,96799.25
2023-11-14T00:54:42.917Z,96808.72
2023-11-14T00:57:44.783Z,96807.88
2023-11-14T01:00:46.648Z,96796.56
2023-11-14T01:03:48.477Z,96792.00
2023-11-14T01:06:52.023Z,96787.63
2023-11-14T01:09:53.742Z,96790.81
2023-11-14T01:13:00.502Z,96809.34
2023-11-14T01:16:02.444Z,96805.97
2023-11-14T01:19:04.500Z,96808.38
2023-11-14T01:22:08.859Z,96799.00
2023-11-14T01:25:10.902Z,96809.25
2023-11-14T01:28:12.643Z,96791.78
2023-11-14T01:31:21.561Z,96801.72
2023-11-14T01:34:24.412Z,96793.13
2023-11-14T01:37:27.905Z,96782.88
2023-11-14T01:40:30.257Z,96796.44
2023-11-14T01:43:41.469Z,96788.66
2023-11-14T01:46:43.291Z,96783.13
2023-11-14T01:49:46.248Z,96801.78
2023-11-14T01:52:50.527Z,96790.66
2023-11-14T01:55:54.604Z,96803.34
2023-11-14T01:58:57.444Z,96799.59
2023-11-14T02:01:59.702Z,96813.91
2023-11-14T02:05:02.846Z,96812.19
2023-11-14T02:08:06.146Z,96806.75
2023-11-14T02:11:07.992Z,96808.56
2023-11-14T02:14:09.728Z,96797.69
2023-11-14T02:17:16.506Z,96797.34
2023-11-14T02:20:18.386Z,96802.03
2023-11-14T02:23:23.779Z,96787.97
2023-11-14T02:26:27.217Z,96809.91
2023-11-14T02:29:29.334Z,96804.72
2023-11-14T02:32:32.205Z,96792.16
2023-11-14T02:35:35.009Z,96812.38
2023-11-14T02:38:37.509Z,96788.41
2023-11-14T02:41:40.660Z,96791.19
2023-11-14T02:44:42.656Z,96798.22
2023-11-14T02:47:44.544Z,96800.88
2023-11-14T02:50:51.668Z,96795.66
2023-11-14T02:53:54.915Z,96785.63
2023-11-14T02:56:58.255Z,96802.88
2023-11-14T02:59:59.984Z,96785.13
2023-11-14T03:03:01.805Z,96812.69
2023-11-14T03:06:05.251Z,96812.19
2023-11-14T03:09:07.141Z,96823.59
2023-11-14T03:12:13.517Z,96835.34
2023-11-14T03:15:15.665Z,96827.13
2023-11-14T03:18:17.981Z,96818.06
2023-11-14T03:21:20.762Z,96830.31
2023-11-14T03:24:23.162Z,96821.16
2023-11-14T03:27:26.221Z,96809.25
2023-11-14T03:30:28.349Z,96828.44
2023-11-14T03:33:30.352Z,96838.38
2023-11-14T03:36:32.726Z,96825.06
2023-11-14T03:39:34.903Z,96830.31
2023-11-14T03:42:38.141Z,96833.06
2023-11-14T03:45:40.016Z,96832.00
2023-11-14T03:48:41.908Z,96844.38
2023-11-14T03:51:44.272Z,96826.56
2023-11-14T03:54:46.009Z,96834.56
2023-11-14T03:57:49.183Z,96850.53
2023-11-14T04:00:51.055Z,96856.84
2023-11-14T04:03:52.958Z,96842.66
2023-11-14T04:06:54.644Z,96847.22
2023-11-14T04:09:56.950Z,96860.56
2023-11-14T04:13:00.239Z,96853.75
2023-11-14T04:16:01.944Z,96867.19
2023-11-14T04:19:03.784Z,96869.84
2023-11-14T04:22:05.631Z,96852.56
2023-11-14T04:25:07.681Z,96860.47
2023-11-14T04:28:11.211Z,96888.09
2023-11-14T04:31:13.341Z,96856.00
2023-11-14T04:34:15.104Z,96833.06
2023-11-14T04:37:16.855Z,96846.19
2023-11-14T04:40:20.176Z,96845.66
2023-11-14T04:43:24.514Z,96847.03
2023-11-14T04:46:26.436Z,96882.63
2023-11-14T04:49:28.169Z,96886.78
2023-11-14T04:52:30.049Z,96849.56
2023-11-14T04:55:31.937Z,96853.50
2023-11-14T04:58:37.115Z,96854.44
2023-11-14T05:01:39.356Z,96863.09
2023-11-14T05:04:43.845Z,96855.94
2023-11-14T05:07:45.862Z,96864.06
2023-11-14T05:10:47.646Z,96839.41
2023-11-14T05:13:50.891Z,96844.38
2023-11-14T05:16:57.382Z,96841.69
2023-11-14T05:20:00.792Z,96859.38
2023-11-14T05:23:02.842Z,96850.66
2023-11-14T05:26:04.841Z,96844.38
2023-11-14T05:29:08.348Z,96834.56
2023-11-14T05:32:10.595Z,96841.16
2023-11-14T05:35:13.609Z,96851.94
2023-11-14T05:38:16.352Z,96838.97
2023-11-14T05:41:18.042Z,96855.56
2023-11-14T05:44:21.454Z,96852.91
2023-11-14T05:47:23.571Z,96851.22
2023-11-14T05:50:25.464Z,96840.91
2023-11-14T05:53:27.168Z,96866.28
2023-11-14T05:56:28.921Z,96835.38
2023-11-14T05:59:31.991Z,96847.34
2023-11-14T06:02:34.512Z,96865.25
2023-11-14T06:05:36.662Z,96851.63
2023-11-14T06:08:38.602Z,96853.13
2023-11-14T06:11:40.533Z,96853.56
2023-11-14T06:14:44.000Z,96868.47
2023-11-14T06:17:46.300Z,96869.00
2023-11-14T06:20:48.237Z,96863.22
2023-11-14T06:23:50.068Z,96869.31
2023-11-14T06:26:51.912Z,96879.75
2023-11-14T06:29:56.524Z,96868.88
2023-11-14T06:32:58.393Z,96876.66
2023-11-14T06:36:00.238Z,96878.38
2023-11-14T06:39:02.045Z,96876.34
2023-11-14T06:42:04.083Z,96867.63
2023-11-14T06:45:08.485Z,96866.09
2023-11-14T06:48:10.438Z,96876.13
2023-11-14T06:51:12.464Z,96859.28
2023-11-14T06:54:14.149Z,96880.16
2023-11-14T06:57:15.944Z,96900.19
2023-11-14T07:00:20.064Z,96894.97
2023-11-14T07:03:21.770Z,96899.31
2023-11-14T07:06:23.771Z,96889.44
2023-11-14T07:09:26.928Z,96898.06
2023-11-14T07:12:28.662Z,96902.31
2023-11-14T07:15:32.250Z,96901.13
2023-11-14T07:18:35.624Z,96918.72
2023-11-14T07:21:37.838Z,96902.94
2023-11-14T07:24:39.604Z,96909.22
2023-11-14T07:27:42.465Z,96913.69
2023-11-14T07:30:46.654Z,96921.06
2023-11-14T07:33:48.426Z,96951.75
2023-11-14T07:36:50.346Z,96951.84
2023-11-14T07:39:53.807Z,96954.50
2023-11-14T07:42:57.347Z,96948.13
2023-11-14T07:46:00.671Z,96947.91
2023-11-14T07:49:02.449Z,96953.22
2023-11-14T07:52:04.589Z,96969.13
2023-11-14T07:55:07.075Z,96949.41
2023-11-14T07:58:09.433Z,96952.81
2023-11-14T08:01:12.736Z,96954.09
2023-11-14T08:04:16.453Z,96957.41
2023-11-14T08:07:18.560Z,96970.09
2023-11-14T08:10:20.518Z,96961.34
2023-11-14T08:13:22.302Z,96965.59
2023-11-14T08:16:25.470Z,96946.22
2023-11-14T08:19:27.285Z,96970.81
2023-11-14T08:22:29.432Z,96944.69
2023-11-14T08:25:32.484Z,96961.22
2023-11-14T08:28:34.307Z,96962.59
2023-11-14T08:31:38.625Z,96967.94
2023-11-14T08:34:40.378Z,96967.19
2023-11-14T08:37:43.358Z,96974.66
2023-11-14T08:40:45.169Z,96969.22
2023-11-14T08:43:47.291Z,96972.41
2023-11-14T08:46:50.481Z,96950.25
2023-11-14T08:49:52.264Z,96988.19
2023-11-14T08:52:54.055Z,96963.88
2023-11-14T08:55:56.789Z,96962.16
2023-11-14T08:58:59.111Z,96963.75
2023-11-14T09:02:02.826Z,96973.25
2023-11-14T09:05:04.908Z,96970.91
2023-11-14T09:08:06.758Z,96987.75
2023-11-14T09:11:09.795Z,96990.50
2023-11-14T09:14:14.511Z,96970.72
2023-11-14T09:17:18.069Z,96983.06
2023-11-14T09:20:20.077Z,96989.13
2023-11-14T09:23:21.918Z,97003.31
2023-11-14T09:26:25.344Z,96979.22
2023-11-14T09:29:27.165Z,96994.88
2023-11-14T09:32:30.703Z,97003.72
2023-11-14T09:35:32.873Z,97007.56
2023-11-14T09:38:34.751Z,97008.19
2023-11-14T09:41:36.952Z,97002.88
2023-11-14T09:44:39.151Z,97007.16
2023-11-14T09:47:42.838Z,97008.84
2023-11-14T09:50:44.843Z,97025.59
2023-11-14T09:53:47.770Z,97019.16
2023-11-14T09:56:49.633Z,97011.19
2023-11-14T09:59:51.307Z,97047.88
2023-11-14T10:02:54.819Z,96994.34
2023-11-14T10:05:57.042Z,97004.75
2023-11-14T10:09:01.918Z,97004.75
2023-11-14T10:12:17.841Z,97012.88
2023-11-14T10:15:29.166Z,97016.81
2023-11-14T10:18:32.495Z,97003.91
2023-11-14T10:21:35.389Z,97017.69
2023-11-14T10:24:37.503Z,96999.13
2023-11-14T10:27:40.624Z,97003.50
2023-11-14T10:30:51.709Z,97009.06
2023-11-14T10:33:55.347Z,96999.44
2023-11-14T10:36:58.211Z,97008.47
2023-11-14T10:40:02.950Z,97014.69
2023-11-14T10:43:04.851Z,97000.13
2023-11-14T10:46:08.744Z,96998.59
2023-11-14T10:49:12.209Z,97002.69
2023-11-14T10:52:14.651Z,97002.25
2023-11-14T10:55:16.881Z,97003.53
2023-11-14T10:58:18.869Z,97005.25
2023-11-14T11:01:22.877Z,97021.03
2023-11-14T11:04:26.836Z,97008.84
2023-11-14T11:07:29.488Z,96996.72
2023-11-14T11:10:34.714Z,97003.75
2023-11-14T11:13:36.840Z,96993.41
2023-11-14T11:16:45.885Z,97001.06
2023-11-14T11:19:53.713Z,97002.25
2023-11-14T11:23:04.191Z,96985.59
2023-11-14T11:26:12.810Z,96989.00
2023-11-14T11:29:29.437Z,96974.03
2023-11-14T11:32:33.925Z,96980.84
2023-11-14T11:35:37.295Z,96975.97
2023-11-14T11:38:52.186Z,96972.19
2023-11-14T11:42:00.478Z,96944.94
2023-11-14T11:45:02.661Z,96952.63
2023-11-14T11:48:05.042Z,96957.84
2023-11-14T11:51:26.213Z,96947.91
2023-11-14T11:54:38.179Z,96951.19
2023-11-14T11:57:39.943Z,96943.84
2023-11-14T12:00:41.818Z,96953.31
2023-11-14T12:03:44.061Z,96944.72
2023-11-14T12:06:48.119Z,96931.28
2023-11-14T12:09:52.573Z,96934.19
2023-11-14T12:12:56.016Z,96928.09
2023-11-14T12:15:59.073Z,96936.09
2023-11-14T12:19:01.441Z,96938.31
2023-11-14T12:22:06.905Z,96946.44
2023-11-14T12:25:08.890Z,96946.06
2023-11-14T12:28:10.761Z,96953.41
2023-11-14T12:31:13.089Z,96950.50
2023-11-14T12:34:24.110Z,96960.44
2023-11-14T12:37:28.478Z,96950.59
2023-11-14T12:40:30.245Z,96961.16
2023-11-14T12:43:33.165Z,96927.69
2023-11-14T12:46:35.358Z,96943.69
2023-11-14T12:49:48.128Z,96940.78
2023-11-14T12:52:52.574Z,96946.00
2023-11-14T12:55:56.428Z,96945.66
2023-11-14T12:58:58.470Z,96951.50
2023-11-14T13:02:00.502Z,96953.44
2023-11-14T13:05:02.838Z,96953.31
2023-11-14T13:08:06.244Z,96939.84
2023-11-14T13:11:08.417Z,96944.47
2023-11-14T13:14:10.934Z,96928.69
2023-11-14T13:17:13.539Z,96938.28
2023-11-14T13:20:15.493Z,96939.63
2023-11-14T13:23:18.766Z,96929.94
2023-11-14T13:26:23.886Z,96954.16
2023-11-14T13:29:25.977Z,96925.66
2023-11-14T13:32:29.054Z,96928.91
2023-11-14T13:35:30.884Z,96921.38
2023-11-14T13:38:34.827Z,96916.28
2023-11-14T13:41:46.868Z,96917.25
2023-11-14T13:44:49.479Z,96918.41
2023-11-14T13:47:54.249Z,96910.41
2023-11-14T13:50:58.170Z,96897.19
2023-11-14T13:54:04.827Z,96899.97
2023-11-14T13:57:09.587Z,96892.81
2023-11-14T14:00:15.379Z,96897.31
2023-11-14T14:03:20.618Z,96894.50
2023-11-14T14:06:22.833Z,96906.28
2023-11-14T14:09:27.457Z,96906.53
2023-11-14T14:12:29.612Z,96903.94
2023-11-14T14:15:32.938Z,96909.19
2023-11-14T14:18:36.157Z,96896.69
2023-11-14T14:21:38.094Z,96890.97
2023-11-14T14:24:41.654Z,96883.81
2023-11-14T14:27:44.143Z,96883.06
2023-11-14T14:30:46.584Z,96902.00
2023-11-14T14:33:48.533Z,96906.69
2023-11-14T14:36:50.383Z,96880.97
2023-11-14T14:39:55.497Z,96899.78
2023-11-14T14:42:57.347Z,96897.22
2023-11-14T14:45:59.410Z,96902.88
2023-11-14T14:49:01.138Z,96906.44
2023-11-14T14:52:04.582Z,96905.47
2023-11-14T14:55:11.426Z,96898.50
2023-11-14T14:58:14.050Z,96894.38
2023-11-14T15:01:16.736Z,96896.44
2023-11-14T15:04:18.841Z,96901.13
2023-11-14T15:07:21.529Z,96903.41
2023-11-14T15:10:24.573Z,96903.63
2023-11-14T15:13:26.374Z,96915.38
2023-11-14T15:16:32.545Z,96911.13
2023-11-14T15:19:34.483Z,96914.63
2023-11-14T15:22:36.292Z,96921.91
2023-11-14T15:25:42.637Z,96940.84
2023-11-14T15:28:44.451Z,96924.97
2023-11-14T15:31:46.258Z,96918.78
2023-11-14T15:34:48.062Z,96921.47
2023-11-14T15:37:51.690Z,96922.78
2023-11-14T15:40:55.248Z,96912.53
2023-11-14T15:43:58.947Z,96912.31
2023-11-14T15:47:00.703Z,96920.53
2023-11-14T15:50:03.850Z,96911.69
2023-11-14T15:53:06.113Z,96902.00
2023-11-14T15:56:09.844Z,96899.44
2023-11-14T15:59:11.726Z,96901.50
2023-11-14T16:02:13.631Z,96902.88
2023-11-14T16:05:15.481Z,96891.13
2023-11-14T16:08:17.479Z,96882.19
2023-11-14T16:11:21.109Z,96881.69
2023-11-14T16:14:23.177Z,96885.19
2023-11-14T16:17:25.042Z,96890.94
2023-11-14T16:20:28.642Z,96876.53
2023-11-14T16:23:30.520Z,96876.66
2023-11-14T16:26:33.837Z,96881.25
2023-11-14T16:29:37.595Z,96891.19
2023-11-14T16:32:39.476Z,96886.81
2023-11-14T16:35:41.426Z,96891.81
2023-11-14T16:38:43.269Z,96897.34
2023-11-14T16:41:46.489Z,96888.41
2023-11-14T16:44:48.438Z,96888.16
2023-11-14T16:47:51.058Z,96889.47
2023-11-14T16:50:52.943Z,96884.25
2023-11-14T16:53:54.936Z,96884.25
2023-11-14T16:56:58.170Z,96882.69
2023-11-14T17:00:00.080Z,96876.38
2023-11-14T17:03:01.915Z,96869.84
2023-11-14T17:06:04.054Z,96878.72
2023-11-14T17:09:06.707Z,96883.19
2023-11-14T17:12:10.053Z,96877.00
2023-11-14T17:15:13.923Z,96867.31
2023-11-14T17:18:15.716Z,96875.19
2023-11-14T17:21:17.753Z,96872.53
2023-11-14T17:24:19.548Z,96881.38
2023-11-14T17:27:25.110Z,96876.59
2023-11-14T17:30:28.205Z,96873.28
2023-11-14T17:33:30.103Z,96874.81
2023-11-14T17:36:31.887Z,96875.34
2023-11-14T17:39:33.959Z,96884.63
2023-11-14T17:42:37.133Z,96870.03
2023-11-14T17:45:40.626Z,96869.19
2023-11-14T17:48:43.770Z,96869.75
2023-11-14T17:51:45.722Z,96865.69
2023-11-14T17:54:47.569Z,96862.41
2023-11-14T17:57:50.724Z,96865.34
2023-11-14T18:00:52.710Z,96856.75
2023-11-14T18:03:54.726Z,96862.19
2023-11-14T18:06:57.309Z,96859.09
2023-11-14T18:09:58.973Z,96866.66
2023-11-14T18:13:02.119Z,96851.97
2023-11-14T18:16:04.195Z,96856.53
2023-11-14T18:19:05.970Z,96864.81
2023-11-14T18:22:07.828Z,96862.50
2023-11-14T18:25:09.864Z,96858.22
2023-11-14T18:28:15.443Z,96861.19
2023-11-14T18:31:17.332Z,96865.03
2023-11-14T18:34:19.201Z,96852.06
2023-11-14T18:37:21.282Z,96862.03
2023-11-14T18:40:23.212Z,96858.94
2023-11-14T18:43:27.600Z,96866.25
2023-11-14T18:46:29.769Z,96857.75
2023-11-14T18:49:31.781Z,96854.53
2023-11-14T18:52:37.151Z,96854.53
2023-11-14T18:55:39.265Z,96852.19
2023-11-14T18:58:42.497Z,96842.63
2023-11-14T19:01:45.023Z,96837.50
2023-11-14T19:04:47.068Z,96849.09
2023-11-14T19:07:49.355Z,96836.94
2023-11-14T19:10:51.197Z,96823.84
2023-11-14T19:14:02.921Z,96824.81
2023-11-14T19:17:06.223Z,96828.44
2023-11-14T19:20:11.645Z,96818.94
2023-11-14T19:23:41.196Z,96820.84
2023-11-14T19:26:37.342Z,96822.75
2023-11-14T19:29:41.139Z,96814.03
2023-11-14T19:32:43.237Z,96812.34
2023-11-14T19:35:55.073Z,96807.22
2023-11-14T19:38:59.233Z,96805.50
2023-11-14T19:42:01.577Z,96803.81
2023-11-14T19:45:03.671Z,96808.28
2023-11-14T19:48:05.940Z,96804.00
2023-11-14T19:51:13.119Z,96801.34
2023-11-14T19:54:15.336Z,96804.97
2023-11-14T19:57:21.045Z,96804.13
2023-11-14T20:00:23.506Z,96804.19
2023-11-14T20:03:25.503Z,96807.91
2023-11-14T20:06:29.087Z,96811.41
2023-11-14T20:09:31.101Z,96802.59
2023-11-14T20:12:33.198Z,96802.59
2023-11-14T20:15:34.953Z,96804.50
2023-11-14T20:18:38.118Z,96803.78
2023-11-14T20:21:41.969Z,96801.13
2023-11-14T20:24:43.910Z,96802.91
2023-11-14T20:27:50.099Z,96811.75
2023-11-14T20:30:52.632Z,96796.44
2023-11-14T20:33:57.341Z,96805.47
2023-11-14T20:37:00.945Z,96816.09
2023-11-14T20:40:02.982Z,96812.50
2023-11-14T20:43:05.141Z,96809.84
2023-11-14T20:46:10.841Z,96823.97
2023-11-14T20:49:12.831Z,96830.97
2023-11-14T20:52:16.529Z,96834.59
2023-11-14T20:55:18.772Z,96835.53
2023-11-14T20:58:25.842Z,96844.38
2023-11-14T21:01:29.425Z,96837.47
2023-11-14T21:04:31.188Z,96847.22
2023-11-14T21:07:34.638Z,96854.47
2023-11-14T21:10:36.422Z,96857.97
2023-11-14T21:13:38.388Z,96850.94
2023-11-14T21:16:43.359Z,96851.13
2023-11-14T21:19:45.148Z,96860.78
2023-11-14T21:22:48.670Z,96864.63
2023-11-14T21:25:50.575Z,96865.56
2023-11-14T21:28:52.568Z,96864.94
2023-11-14T21:31:56.685Z,96866.81
2023-11-14T21:34:59.139Z,96869.56
2023-11-14T21:38:02.634Z,96874.22
2023-11-14T21:41:05.679Z,96890.06
2023-11-14T21:44:07.848Z,96891.75
2023-11-14T21:47:10.220Z,96896.31
2023-11-14T21:50:13.172Z,96905.16
2023-11-14T21:53:17.160Z,96909.50
2023-11-14T21:56:22.488Z,96908.66
2023-11-14T21:59:24.485Z,96915.78
2023-11-14T22:02:26.719Z,96922.13
2023-11-14T22:05:28.780Z,96935.59
2023-11-14T22:08:32.472Z,96936.63
2023-11-14T22:11:34.478Z,96936.75
2023-11-14T22:14:36.213Z,96941.09
2023-11-14T22:17:38.572Z,96943.84
2023-11-14T22:20:40.444Z,96944.81
2023-11-14T22:23:47.022Z,96953.72
2023-11-14T22:26:48.806Z,96951.28
2023-11-14T22:29:57.025Z,96958.38
2023-11-14T22:32:58.839Z,96956.59
2023-11-14T22:36:00.944Z,96961.03
2023-11-14T22:39:06.329Z,96969.00
2023-11-14T22:42:08.451Z,96978.75
2023-11-14T22:45:13.656Z,96982.28
2023-11-14T22:48:16.691Z,96979.63
2023-11-14T22:51:18.661Z,96988.44
2023-11-14T22:54:22.462Z,96996.31
2023-11-14T22:57:24.768Z,97005.97
2023-11-14T23:00:45.685Z,97012.06
2023-11-14T23:03:49.419Z,97012.81
2023-11-14T23:06:51.478Z,97023.22
2023-11-14T23:09:57.441Z,97034.63
2023-11-14T23:13:00.952Z,97037.19
2023-11-14T23:16:05.458Z,97052.09
2023-11-14T23:19:09.953Z,97049.34
2023-11-14T23:22:12.488Z,97054.53
2023-11-14T23:25:16.057Z,97063.31
2023-11-14T23:28:18.141Z,97075.44
2023-11-14T23:31:19.915Z,97085.13
2023-11-14T23:34:21.983Z,97086.72
2023-11-14T23:37:24.239Z,97093.84
2023-11-14T23:40:27.709Z,97100.84
2023-11-14T23:43:32.509Z,97111.50
2023-11-14T23:46:35.052Z,97121.16
2023-11-14T23:49:37.160Z,97134.34
2023-11-14T23:52:41.892Z,97138.75
2023-11-14T23:55:45.243Z,97144.13
2023-11-14T23:58:47.687Z,97152.09
